WetterOnline ( https://www.wetteronline.de )

Wetter aktuell Arnsberg

Aktuelles Wetter: Werl (84m)

6-stündlich | Neueste Meldungen
Ortszeit Temperatur Wetter
Mi, 28.10. 19:00 12.0° C wolkig
Mi, 28.10. 13:00 13.7° C leicht bewölkt
Mi, 28.10. 7:00 10.6° C wolkig
Mi, 28.10. 1:00 11.6° C bewölkt
Di, 27.10. 19:00 10.9° C wolkig
Di, 27.10. 13:00 12.5° C bewölkt
Di, 27.10. 7:00 8.8° C wolkig
Di, 27.10. 1:00 9.9° C bedeckt
Ortszeit Temperatur Wetter
Mi, 28.10. 21:30 11.9° C wolkig
Mi, 28.10. 21:20 11.9° C wolkig
Mi, 28.10. 21:10 11.7° C bedeckt
Mi, 28.10. 21:00 11.8° C bedeckt
Mi, 28.10. 20:50 11.8° C bedeckt
Mi, 28.10. 20:40 11.9° C Sprühregen
Mi, 28.10. 20:30 12.1° C bewölkt
Mi, 28.10. 20:00 12.3° C wolkig
Mi, 28.10. 18:00 12.7° C bewölkt
Ortszeit Relative Feuchte Sichtweite
Mi, 28.10. 19:00 69% 50 km
Mi, 28.10. 13:00 64% 55 km
Mi, 28.10. 7:00 87% 45 km
Mi, 28.10. 1:00 76% 65 km
Di, 27.10. 19:00 67% 50 km
Di, 27.10. 13:00 67% >70 km
Di, 27.10. 7:00 84% 50 km
Di, 27.10. 1:00 75% 50 km
Ortszeit Relative Feuchte Sichtweite
Mi, 28.10. 21:30 75% 55 km
Mi, 28.10. 21:20 75% -
Mi, 28.10. 21:10 75% -
Mi, 28.10. 21:00 75% 50 km
Mi, 28.10. 20:50 75% -
Mi, 28.10. 20:40 74% -
Mi, 28.10. 20:30 70% 50 km
Mi, 28.10. 20:00 69% 50 km
Mi, 28.10. 18:00 64% 60 km
Ortszeit Niederschlagsmenge Niederschlagsart
Mi, 28.10. 19:00 0.1 l/m2 in 12 Std. Regen
Mi, 28.10. 13:00 0.0 l/m2 in 6 Std. -
Mi, 28.10. 7:00 0.1 l/m2 in 12 Std. -
Mi, 28.10. 1:00 0.1 l/m2 in 6 Std. Regen
Di, 27.10. 19:00 0.1 l/m2 in 12 Std. -
Di, 27.10. 13:00 0.1 l/m2 in 6 Std. Regen
Di, 27.10. 7:00 0.2 l/m2 in 12 Std. Regen
Di, 27.10. 1:00 0.1 l/m2 in 6 Std. Regen
Ortszeit Niederschlagsmenge Niederschlagsart
Mi, 28.10. 21:30 0.0 l/m2 in 1 Std. -
Mi, 28.10. 21:20 keine Meldung -
Mi, 28.10. 21:10 keine Meldung -
Mi, 28.10. 21:00 0.1 l/m2 in 1 Std. Regen
Mi, 28.10. 20:50 keine Meldung -
Mi, 28.10. 20:40 keine Meldung -
Mi, 28.10. 20:30 0.1 l/m2 in 1 Std. Schneeregen
Mi, 28.10. 20:00 0.0 l/m2 in 1 Std. -
Mi, 28.10. 18:00 keine Meldung -
Ortszeit Stärke Spitze Richtung
km/h Bft. km/h Grad Sektor
Mi, 28.10. 19:00 22 4 46 200° S
Mi, 28.10. 13:00 28 4 46 220° SW
Mi, 28.10. 7:00 7 2 47 210° SW
Mi, 28.10. 1:00 30 5 65 200° S
Di, 27.10. 19:00 18 3 47 180° S
Di, 27.10. 13:00 30 5 48 220° SW
Di, 27.10. 7:00 13 3 37 220° SW
Di, 27.10. 1:00 18 3 32 200° S
Ortszeit Stärke Spitze Richtung
km/h Bft. km/h Grad Sektor
Mi, 28.10. 21:30 28 4 44 190° S
Mi, 28.10. 21:20 28 4 - 190° S
Mi, 28.10. 21:10 26 4 - 190° S
Mi, 28.10. 21:00 24 4 43 190° S
Mi, 28.10. 20:50 24 4 - 190° S
Mi, 28.10. 20:40 26 4 - 190° S
Mi, 28.10. 20:30 22 4 43 200° S
Mi, 28.10. 20:00 25 4 36 200° S
Mi, 28.10. 18:00 22 4 36 210° SW
Ortszeit Untergrenze Bedeckung Gattung
total tief tief mittel hoch
Mi, 28.10. 19:00 1500 m 8/8 2/8 - - -
Mi, 28.10. 13:00 1080 m 4/8 4/8 - - -
Mi, 28.10. 7:00 570 m 7/8 4/8 - - -
Mi, 28.10. 1:00 750 m 7/8 7/8 - - -
Di, 27.10. 19:00 2700 m 7/8 2/8 - - -
Di, 27.10. 13:00 930 m 7/8 7/8 - - -
Di, 27.10. 7:00 870 m 6/8 5/8 - - -
Di, 27.10. 1:00 1500 m 8/8 8/8 - - -
Ortszeit Bedeckungsgrad in Achtel und Wolkenuntergrenze
Mi, 28.10. 21:30 1(1500m) 8(3000m) 8(3900m)
Mi, 28.10. 21:20 1(1500m) 8(3000m) 8(3900m)
Mi, 28.10. 21:10 3(1500m) 8(2700m) 8(4500m)
Mi, 28.10. 21:00 4(1290m) 8(1500m) 8(3000m)
Mi, 28.10. 20:50 4(1290m) 8(1500m) 8(3000m)
Mi, 28.10. 20:40 6(1500m) 7(1800m) 7(2700m)
Mi, 28.10. 20:30 3(1470m) 7(1800m) 8(3300m)
Mi, 28.10. 20:00 3(1500m) 8(3300m) 8(5400m)
Mi, 28.10. 18:00 1(810m) 7(1800m) 7(5100m)
Ortszeit Luftdruck NN (hPa) Tendenz (hPa in 3 Std.)
Mi, 28.10. 19:00 1008 - 0,3
Mi, 28.10. 13:00 1009 + 0,6
Mi, 28.10. 7:00 1006 + 1,4
Mi, 28.10. 1:00 1004 + 0,2
Di, 27.10. 19:00 1005 - 0,8
Di, 27.10. 13:00 1006 - 0,2
Di, 27.10. 7:00 1005 + 0,9
Di, 27.10. 1:00 1004 0,0
Ortszeit Luftdruck NN (hPa) Tendenz (hPa in 3 Std.)
Mi, 28.10. 21:30 1007 - 1,0
Mi, 28.10. 21:20 1007 keine Meldung
Mi, 28.10. 21:10 1008 keine Meldung
Mi, 28.10. 21:00 1008 - 0,7
Mi, 28.10. 20:50 1008 keine Meldung
Mi, 28.10. 20:40 1008 keine Meldung
Mi, 28.10. 20:30 1008 - 0,5
Mi, 28.10. 20:00 1008 - 0,4
Mi, 28.10. 18:00 1008 - 0,2
Ortszeit Schneehöhe (cm)
Mi, 28.10. 19:00 0
Mi, 28.10. 13:00 0
Mi, 28.10. 7:00 0
Mi, 28.10. 1:00 0
Di, 27.10. 19:00 0
Di, 27.10. 13:00 0
Di, 27.10. 7:00 0
Di, 27.10. 1:00 0
Ortszeit Schneehöhe (cm)
Mi, 28.10. 21:30 0
Mi, 28.10. 21:20 0
Mi, 28.10. 21:10 0
Mi, 28.10. 21:00 0
Mi, 28.10. 20:50 0
Mi, 28.10. 20:40 0
Mi, 28.10. 20:30 0
Mi, 28.10. 20:00 0
Mi, 28.10. 18:00 -
Link zu dieser Seite / Seite empfehlen

Das Wetter in ...